sensor_id;sensor_type;location;lat;lon;timestamp;temperature;humidity
78514;SHT31;67814;51.976;5.810;2024-02-26T00:00:19;9.0;60.4
78514;SHT31;67814;51.976;5.810;2024-02-26T00:02:49;8.9;60.8
78514;SHT31;67814;51.976;5.810;2024-02-26T00:05:18;8.9;61.1
78514;SHT31;67814;51.976;5.810;2024-02-26T00:07:46;8.9;60.4
78514;SHT31;67814;51.976;5.810;2024-02-26T00:10:15;8.9;60.5
78514;SHT31;67814;51.976;5.810;2024-02-26T00:12:44;8.9;60.5
78514;SHT31;67814;51.976;5.810;2024-02-26T00:15:13;8.9;60.4
78514;SHT31;67814;51.976;5.810;2024-02-26T00:17:43;8.9;60.3
78514;SHT31;67814;51.976;5.810;2024-02-26T00:20:12;8.8;60.4
78514;SHT31;67814;51.976;5.810;2024-02-26T00:22:41;8.8;60.2
78514;SHT31;67814;51.976;5.810;2024-02-26T00:25:09;8.8;60.2
78514;SHT31;67814;51.976;5.810;2024-02-26T00:27:38;8.8;60.4
78514;SHT31;67814;51.976;5.810;2024-02-26T00:30:09;8.7;61.0
78514;SHT31;67814;51.976;5.810;2024-02-26T00:32:38;8.7;60.7
78514;SHT31;67814;51.976;5.810;2024-02-26T00:35:07;8.7;60.6
78514;SHT31;67814;51.976;5.810;2024-02-26T00:37:37;8.7;60.8
78514;SHT31;67814;51.976;5.810;2024-02-26T00:40:06;8.7;61.1
78514;SHT31;67814;51.976;5.810;2024-02-26T00:42:35;8.7;60.9
78514;SHT31;67814;51.976;5.810;2024-02-26T00:45:04;8.7;61.1
78514;SHT31;67814;51.976;5.810;2024-02-26T00:47:33;8.7;61.0
78514;SHT31;67814;51.976;5.810;2024-02-26T00:50:01;8.7;60.8
78514;SHT31;67814;51.976;5.810;2024-02-26T00:52:32;8.6;60.7
78514;SHT31;67814;51.976;5.810;2024-02-26T00:55:02;8.6;61.2
78514;SHT31;67814;51.976;5.810;2024-02-26T00:57:31;8.6;61.2
78514;SHT31;67814;51.976;5.810;2024-02-26T01:00:00;8.6;61.4
78514;SHT31;67814;51.976;5.810;2024-02-26T01:02:29;8.7;61.4
78514;SHT31;67814;51.976;5.810;2024-02-26T01:04:58;8.7;61.5
78514;SHT31;67814;51.976;5.810;2024-02-26T01:07:27;8.7;61.7
78514;SHT31;67814;51.976;5.810;2024-02-26T01:09:55;8.6;61.8
78514;SHT31;67814;51.976;5.810;2024-02-26T01:12:24;8.6;62.1
78514;SHT31;67814;51.976;5.810;2024-02-26T01:14:53;8.6;62.0
78514;SHT31;67814;51.976;5.810;2024-02-26T01:17:23;8.6;62.4
78514;SHT31;67814;51.976;5.810;2024-02-26T01:19:52;8.5;62.4
78514;SHT31;67814;51.976;5.810;2024-02-26T01:22:21;8.5;62.6
78514;SHT31;67814;51.976;5.810;2024-02-26T01:24:50;8.5;62.7
78514;SHT31;67814;51.976;5.810;2024-02-26T01:27:19;8.4;62.9
78514;SHT31;67814;51.976;5.810;2024-02-26T01:29:47;8.4;63.2
78514;SHT31;67814;51.976;5.810;2024-02-26T01:32:16;8.4;63.2
78514;SHT31;67814;51.976;5.810;2024-02-26T01:34:44;8.4;63.2
78514;SHT31;67814;51.976;5.810;2024-02-26T01:37:13;8.3;63.3
78514;SHT31;67814;51.976;5.810;2024-02-26T01:39:41;8.3;63.2
78514;SHT31;67814;51.976;5.810;2024-02-26T01:42:10;8.3;63.2
78514;SHT31;67814;51.976;5.810;2024-02-26T01:44:39;8.3;63.4
78514;SHT31;67814;51.976;5.810;2024-02-26T01:47:11;8.3;63.5
78514;SHT31;67814;51.976;5.810;2024-02-26T01:49:42;8.3;63.6
78514;SHT31;67814;51.976;5.810;2024-02-26T01:52:11;8.3;63.5
78514;SHT31;67814;51.976;5.810;2024-02-26T01:54:40;8.3;63.6
78514;SHT31;67814;51.976;5.810;2024-02-26T01:57:11;8.3;63.7
78514;SHT31;67814;51.976;5.810;2024-02-26T01:59:41;8.3;63.7
78514;SHT31;67814;51.976;5.810;2024-02-26T02:02:11;8.3;63.7
78514;SHT31;67814;51.976;5.810;2024-02-26T02:04:41;8.4;63.5
78514;SHT31;67814;51.976;5.810;2024-02-26T02:07:10;8.4;63.2
78514;SHT31;67814;51.976;5.810;2024-02-26T02:09:39;8.4;63.4
78514;SHT31;67814;51.976;5.810;2024-02-26T02:12:08;8.4;63.2
78514;SHT31;67814;51.976;5.810;2024-02-26T02:14:39;8.5;63.1
78514;SHT31;67814;51.976;5.810;2024-02-26T02:17:08;8.5;62.7
78514;SHT31;67814;51.976;5.810;2024-02-26T02:19:38;8.5;62.5
78514;SHT31;67814;51.976;5.810;2024-02-26T02:22:06;8.5;62.8
78514;SHT31;67814;51.976;5.810;2024-02-26T02:24:35;8.5;62.0
78514;SHT31;67814;51.976;5.810;2024-02-26T02:27:04;8.5;62.3
78514;SHT31;67814;51.976;5.810;2024-02-26T02:29:33;8.5;61.8
78514;SHT31;67814;51.976;5.810;2024-02-26T02:32:05;8.5;62.0
78514;SHT31;67814;51.976;5.810;2024-02-26T02:34:35;8.5;61.9
78514;SHT31;67814;51.976;5.810;2024-02-26T02:37:06;8.5;61.7
78514;SHT31;67814;51.976;5.810;2024-02-26T02:39:35;8.5;61.6
78514;SHT31;67814;51.976;5.810;2024-02-26T02:42:03;8.5;62.0
78514;SHT31;67814;51.976;5.810;2024-02-26T02:44:32;8.5;61.8
78514;SHT31;67814;51.976;5.810;2024-02-26T02:47:00;8.5;61.7
78514;SHT31;67814;51.976;5.810;2024-02-26T02:49:31;8.5;61.8
78514;SHT31;67814;51.976;5.810;2024-02-26T02:51:59;8.5;62.5
78514;SHT31;67814;51.976;5.810;2024-02-26T02:54:28;8.5;62.3
78514;SHT31;67814;51.976;5.810;2024-02-26T02:56:58;8.5;62.5
78514;SHT31;67814;51.976;5.810;2024-02-26T02:59:27;8.5;62.8
78514;SHT31;67814;51.976;5.810;2024-02-26T03:01:56;8.5;62.7
78514;SHT31;67814;51.976;5.810;2024-02-26T03:04:24;8.5;62.7
78514;SHT31;67814;51.976;5.810;2024-02-26T03:06:53;8.6;62.4
78514;SHT31;67814;51.976;5.810;2024-02-26T03:09:21;8.6;62.2
78514;SHT31;67814;51.976;5.810;2024-02-26T03:11:51;8.5;62.4
78514;SHT31;67814;51.976;5.810;2024-02-26T03:14:19;8.5;62.0
78514;SHT31;67814;51.976;5.810;2024-02-26T03:16:48;8.5;62.5
78514;SHT31;67814;51.976;5.810;2024-02-26T03:19:16;8.5;62.2
78514;SHT31;67814;51.976;5.810;2024-02-26T03:21:47;8.6;62.0
78514;SHT31;67814;51.976;5.810;2024-02-26T03:24:16;8.6;61.8
78514;SHT31;67814;51.976;5.810;2024-02-26T03:26:44;8.6;62.0
78514;SHT31;67814;51.976;5.810;2024-02-26T03:29:13;8.6;62.2
78514;SHT31;67814;51.976;5.810;2024-02-26T03:31:41;8.6;62.1
78514;SHT31;67814;51.976;5.810;2024-02-26T03:34:10;8.6;62.0
78514;SHT31;67814;51.976;5.810;2024-02-26T03:36:40;8.6;61.8
78514;SHT31;67814;51.976;5.810;2024-02-26T03:39:09;8.7;61.8
78514;SHT31;67814;51.976;5.810;2024-02-26T03:41:38;8.7;61.4
78514;SHT31;67814;51.976;5.810;2024-02-26T03:44:09;8.7;61.8
78514;SHT31;67814;51.976;5.810;2024-02-26T03:46:38;8.6;62.0
78514;SHT31;67814;51.976;5.810;2024-02-26T03:49:09;8.6;62.0
78514;SHT31;67814;51.976;5.810;2024-02-26T03:51:37;8.6;62.0
78514;SHT31;67814;51.976;5.810;2024-02-26T03:54:06;8.5;62.3
78514;SHT31;67814;51.976;5.810;2024-02-26T03:56:35;8.5;62.6
78514;SHT31;67814;51.976;5.810;2024-02-26T03:59:03;8.5;62.8
78514;SHT31;67814;51.976;5.810;2024-02-26T04:01:32;8.5;62.9
78514;SHT31;67814;51.976;5.810;2024-02-26T04:04:01;8.4;63.1
78514;SHT31;67814;51.976;5.810;2024-02-26T04:06:29;8.4;63.9
78514;SHT31;67814;51.976;5.810;2024-02-26T04:08:58;8.3;63.5
78514;SHT31;67814;51.976;5.810;2024-02-26T04:11:30;8.3;63.6
78514;SHT31;67814;51.976;5.810;2024-02-26T04:13:59;8.3;64.0
78514;SHT31;67814;51.976;5.810;2024-02-26T04:16:29;8.3;63.7
78514;SHT31;67814;51.976;5.810;2024-02-26T04:18:58;8.2;64.0
78514;SHT31;67814;51.976;5.810;2024-02-26T04:21:26;8.2;63.9
78514;SHT31;67814;51.976;5.810;2024-02-26T04:23:55;8.2;64.3
78514;SHT31;67814;51.976;5.810;2024-02-26T04:26:27;8.1;64.5
78514;SHT31;67814;51.976;5.810;2024-02-26T04:28:55;8.1;64.2
78514;SHT31;67814;51.976;5.810;2024-02-26T04:31:24;8.1;64.7
78514;SHT31;67814;51.976;5.810;2024-02-26T04:33:53;8.0;64.9
78514;SHT31;67814;51.976;5.810;2024-02-26T04:36:22;8.0;65.2
78514;SHT31;67814;51.976;5.810;2024-02-26T04:38:52;8.0;65.5
78514;SHT31;67814;51.976;5.810;2024-02-26T04:41:22;7.9;65.6
78514;SHT31;67814;51.976;5.810;2024-02-26T04:43:50;7.9;65.6
78514;SHT31;67814;51.976;5.810;2024-02-26T04:46:19;7.9;65.9
78514;SHT31;67814;51.976;5.810;2024-02-26T04:48:48;7.9;65.5
78514;SHT31;67814;51.976;5.810;2024-02-26T04:51:17;7.9;65.8
78514;SHT31;67814;51.976;5.810;2024-02-26T04:53:46;7.8;66.2
78514;SHT31;67814;51.976;5.810;2024-02-26T04:56:14;7.8;66.6
78514;SHT31;67814;51.976;5.810;2024-02-26T04:58:43;7.7;66.4
78514;SHT31;67814;51.976;5.810;2024-02-26T05:01:12;7.7;67.1
78514;SHT31;67814;51.976;5.810;2024-02-26T05:03:42;7.7;67.1
78514;SHT31;67814;51.976;5.810;2024-02-26T05:06:11;7.7;67.1
78514;SHT31;67814;51.976;5.810;2024-02-26T05:08:39;7.7;67.4
78514;SHT31;67814;51.976;5.810;2024-02-26T05:11:10;7.6;67.6
78514;SHT31;67814;51.976;5.810;2024-02-26T05:13:39;7.6;67.9
78514;SHT31;67814;51.976;5.810;2024-02-26T05:16:07;7.5;68.2
78514;SHT31;67814;51.976;5.810;2024-02-26T05:18:36;7.5;68.0
78514;SHT31;67814;51.976;5.810;2024-02-26T05:21:05;7.5;68.8
78514;SHT31;67814;51.976;5.810;2024-02-26T05:23:33;7.4;69.2
78514;SHT31;67814;51.976;5.810;2024-02-26T05:26:02;7.4;69.4
78514;SHT31;67814;51.976;5.810;2024-02-26T05:28:31;7.4;69.8
78514;SHT31;67814;51.976;5.810;2024-02-26T05:31:00;7.4;70.2
78514;SHT31;67814;51.976;5.810;2024-02-26T05:33:29;7.3;70.3
78514;SHT31;67814;51.976;5.810;2024-02-26T05:35:58;7.3;70.3
78514;SHT31;67814;51.976;5.810;2024-02-26T05:38:30;7.3;70.7
78514;SHT31;67814;51.976;5.810;2024-02-26T05:41:00;7.3;70.6
78514;SHT31;67814;51.976;5.810;2024-02-26T05:43:33;7.2;70.8
78514;SHT31;67814;51.976;5.810;2024-02-26T05:46:01;7.2;71.1
78514;SHT31;67814;51.976;5.810;2024-02-26T05:48:30;7.2;71.6
78514;SHT31;67814;51.976;5.810;2024-02-26T05:50:58;7.1;71.6
78514;SHT31;67814;51.976;5.810;2024-02-26T05:53:27;7.1;71.8
78514;SHT31;67814;51.976;5.810;2024-02-26T05:55:55;7.1;72.2
78514;SHT31;67814;51.976;5.810;2024-02-26T05:58:24;7.1;72.1
78514;SHT31;67814;51.976;5.810;2024-02-26T06:00:53;7.0;72.0
78514;SHT31;67814;51.976;5.810;2024-02-26T06:03:21;7.0;72.3
78514;SHT31;67814;51.976;5.810;2024-02-26T06:05:50;7.0;71.9
78514;SHT31;67814;51.976;5.810;2024-02-26T06:08:18;7.0;72.4
78514;SHT31;67814;51.976;5.810;2024-02-26T06:10:47;7.0;72.4
78514;SHT31;67814;51.976;5.810;2024-02-26T06:13:16;7.0;72.2
78514;SHT31;67814;51.976;5.810;2024-02-26T06:15:44;7.0;72.6
78514;SHT31;67814;51.976;5.810;2024-02-26T06:18:13;7.1;72.1
78514;SHT31;67814;51.976;5.810;2024-02-26T06:20:42;7.1;71.9
78514;SHT31;67814;51.976;5.810;2024-02-26T06:23:12;7.1;72.0
78514;SHT31;67814;51.976;5.810;2024-02-26T06:25:41;7.1;71.9
78514;SHT31;67814;51.976;5.810;2024-02-26T06:28:09;7.1;71.7
78514;SHT31;67814;51.976;5.810;2024-02-26T06:30:38;7.1;71.6
78514;SHT31;67814;51.976;5.810;2024-02-26T06:33:07;7.1;71.4
78514;SHT31;67814;51.976;5.810;2024-02-26T06:35:35;7.1;71.7
78514;SHT31;67814;51.976;5.810;2024-02-26T06:38:04;7.1;71.6
78514;SHT31;67814;51.976;5.810;2024-02-26T06:40:34;7.1;71.8
78514;SHT31;67814;51.976;5.810;2024-02-26T06:43:02;7.1;71.9
78514;SHT31;67814;51.976;5.810;2024-02-26T06:45:31;7.1;72.5
78514;SHT31;67814;51.976;5.810;2024-02-26T06:48:00;7.1;72.1
78514;SHT31;67814;51.976;5.810;2024-02-26T06:50:28;7.1;71.8
78514;SHT31;67814;51.976;5.810;2024-02-26T06:52:57;7.1;72.5
78514;SHT31;67814;51.976;5.810;2024-02-26T06:55:26;7.1;73.2
78514;SHT31;67814;51.976;5.810;2024-02-26T06:57:54;7.2;72.1
78514;SHT31;67814;51.976;5.810;2024-02-26T07:00:23;7.2;71.9
78514;SHT31;67814;51.976;5.810;2024-02-26T07:02:52;7.2;72.0
78514;SHT31;67814;51.976;5.810;2024-02-26T07:05:20;7.2;72.0
78514;SHT31;67814;51.976;5.810;2024-02-26T07:07:49;7.2;72.1
78514;SHT31;67814;51.976;5.810;2024-02-26T07:10:18;7.2;72.7
78514;SHT31;67814;51.976;5.810;2024-02-26T07:12:47;7.2;72.7
78514;SHT31;67814;51.976;5.810;2024-02-26T07:15:16;7.2;72.6
78514;SHT31;67814;51.976;5.810;2024-02-26T07:17:45;7.1;72.7
78514;SHT31;67814;51.976;5.810;2024-02-26T07:20:15;7.1;72.8
78514;SHT31;67814;51.976;5.810;2024-02-26T07:22:44;7.1;73.3
78514;SHT31;67814;51.976;5.810;2024-02-26T07:25:13;7.1;73.3
78514;SHT31;67814;51.976;5.810;2024-02-26T07:27:42;7.0;73.9
78514;SHT31;67814;51.976;5.810;2024-02-26T07:30:12;7.0;74.2
78514;SHT31;67814;51.976;5.810;2024-02-26T07:32:41;7.0;74.4
78514;SHT31;67814;51.976;5.810;2024-02-26T07:35:11;7.0;75.1
78514;SHT31;67814;51.976;5.810;2024-02-26T07:37:39;6.9;75.5
78514;SHT31;67814;51.976;5.810;2024-02-26T07:40:11;6.9;74.9
78514;SHT31;67814;51.976;5.810;2024-02-26T07:42:40;6.9;75.7
78514;SHT31;67814;51.976;5.810;2024-02-26T07:45:09;6.9;75.3
78514;SHT31;67814;51.976;5.810;2024-02-26T07:47:37;6.9;75.1
78514;SHT31;67814;51.976;5.810;2024-02-26T07:50:08;6.8;75.9
78514;SHT31;67814;51.976;5.810;2024-02-26T07:52:38;6.8;75.8
78514;SHT31;67814;51.976;5.810;2024-02-26T07:55:10;6.8;75.9
78514;SHT31;67814;51.976;5.810;2024-02-26T07:57:42;6.7;76.2
78514;SHT31;67814;51.976;5.810;2024-02-26T08:00:11;6.7;76.3
78514;SHT31;67814;51.976;5.810;2024-02-26T08:02:43;6.7;76.8
78514;SHT31;67814;51.976;5.810;2024-02-26T08:05:12;6.7;77.3
78514;SHT31;67814;51.976;5.810;2024-02-26T08:07:41;6.6;77.1
78514;SHT31;67814;51.976;5.810;2024-02-26T08:10:10;6.6;77.4
78514;SHT31;67814;51.976;5.810;2024-02-26T08:12:39;6.6;77.2
78514;SHT31;67814;51.976;5.810;2024-02-26T08:15:08;6.6;77.8
78514;SHT31;67814;51.976;5.810;2024-02-26T08:17:37;6.6;77.8
78514;SHT31;67814;51.976;5.810;2024-02-26T08:20:07;6.6;77.5
78514;SHT31;67814;51.976;5.810;2024-02-26T08:22:37;6.6;77.9
78514;SHT31;67814;51.976;5.810;2024-02-26T08:25:06;6.6;77.7
78514;SHT31;67814;51.976;5.810;2024-02-26T08:27:36;6.6;77.8
78514;SHT31;67814;51.976;5.810;2024-02-26T08:30:05;6.6;78.0
78514;SHT31;67814;51.976;5.810;2024-02-26T08:32:34;6.6;78.0
78514;SHT31;67814;51.976;5.810;2024-02-26T08:35:03;6.6;78.2
78514;SHT31;67814;51.976;5.810;2024-02-26T08:37:33;6.6;78.4
78514;SHT31;67814;51.976;5.810;2024-02-26T08:40:02;6.6;78.4
78514;SHT31;67814;51.976;5.810;2024-02-26T08:42:32;6.6;78.9
78514;SHT31;67814;51.976;5.810;2024-02-26T08:45:01;6.6;78.1
78514;SHT31;67814;51.976;5.810;2024-02-26T08:47:31;6.6;78.6
78514;SHT31;67814;51.976;5.810;2024-02-26T08:50:02;6.6;78.6
78514;SHT31;67814;51.976;5.810;2024-02-26T08:52:32;6.6;78.5
78514;SHT31;67814;51.976;5.810;2024-02-26T08:55:01;6.5;79.0
78514;SHT31;67814;51.976;5.810;2024-02-26T08:57:31;6.5;79.1
78514;SHT31;67814;51.976;5.810;2024-02-26T09:00:00;6.5;79.4
78514;SHT31;67814;51.976;5.810;2024-02-26T09:02:29;6.5;79.4
78514;SHT31;67814;51.976;5.810;2024-02-26T09:04:57;6.6;79.0
78514;SHT31;67814;51.976;5.810;2024-02-26T09:07:28;6.6;79.1
78514;SHT31;67814;51.976;5.810;2024-02-26T09:09:57;6.6;79.0
78514;SHT31;67814;51.976;5.810;2024-02-26T09:12:25;6.6;78.9
78514;SHT31;67814;51.976;5.810;2024-02-26T09:14:54;6.6;79.3
78514;SHT31;67814;51.976;5.810;2024-02-26T09:17:23;6.6;79.0
78514;SHT31;67814;51.976;5.810;2024-02-26T09:19:52;6.6;78.9
78514;SHT31;67814;51.976;5.810;2024-02-26T09:22:21;6.6;79.2
78514;SHT31;67814;51.976;5.810;2024-02-26T09:24:50;6.6;79.4
78514;SHT31;67814;51.976;5.810;2024-02-26T09:27:22;6.6;79.2
78514;SHT31;67814;51.976;5.810;2024-02-26T09:29:51;6.7;79.3
78514;SHT31;67814;51.976;5.810;2024-02-26T09:32:19;6.7;79.7
78514;SHT31;67814;51.976;5.810;2024-02-26T09:34:48;6.7;79.6
78514;SHT31;67814;51.976;5.810;2024-02-26T09:37:17;6.7;79.1
78514;SHT31;67814;51.976;5.810;2024-02-26T09:39:45;6.7;79.0
78514;SHT31;67814;51.976;5.810;2024-02-26T09:42:18;6.7;79.3
78514;SHT31;67814;51.976;5.810;2024-02-26T09:44:51;6.7;79.0
78514;SHT31;67814;51.976;5.810;2024-02-26T09:47:21;6.7;78.7
78514;SHT31;67814;51.976;5.810;2024-02-26T09:49:53;6.8;79.0
78514;SHT31;67814;51.976;5.810;2024-02-26T09:52:23;6.8;79.6
78514;SHT31;67814;51.976;5.810;2024-02-26T09:54:54;6.8;79.3
78514;SHT31;67814;51.976;5.810;2024-02-26T09:57:23;6.8;79.3
78514;SHT31;67814;51.976;5.810;2024-02-26T09:59:55;6.8;79.2
78514;SHT31;67814;51.976;5.810;2024-02-26T10:02:28;6.9;79.5
78514;SHT31;67814;51.976;5.810;2024-02-26T10:04:59;6.9;78.1
78514;SHT31;67814;51.976;5.810;2024-02-26T10:07:31;6.9;78.2
78514;SHT31;67814;51.976;5.810;2024-02-26T10:10:01;6.9;78.9
78514;SHT31;67814;51.976;5.810;2024-02-26T10:12:30;6.9;78.6
78514;SHT31;67814;51.976;5.810;2024-02-26T10:14:59;6.9;78.4
78514;SHT31;67814;51.976;5.810;2024-02-26T10:17:28;6.9;78.4
78514;SHT31;67814;51.976;5.810;2024-02-26T10:20:14;6.9;78.4
78514;SHT31;67814;51.976;5.810;2024-02-26T10:22:44;6.9;78.0
78514;SHT31;67814;51.976;5.810;2024-02-26T10:25:14;7.0;78.1
78514;SHT31;67814;51.976;5.810;2024-02-26T10:27:43;7.0;77.9
78514;SHT31;67814;51.976;5.810;2024-02-26T10:30:19;7.0;77.9
78514;SHT31;67814;51.976;5.810;2024-02-26T10:32:49;7.0;78.2
78514;SHT31;67814;51.976;5.810;2024-02-26T10:35:19;7.0;78.2
78514;SHT31;67814;51.976;5.810;2024-02-26T10:37:49;7.0;77.9
78514;SHT31;67814;51.976;5.810;2024-02-26T10:40:21;7.0;78.1
78514;SHT31;67814;51.976;5.810;2024-02-26T10:42:52;7.0;77.2
78514;SHT31;67814;51.976;5.810;2024-02-26T10:45:20;7.0;77.5
78514;SHT31;67814;51.976;5.810;2024-02-26T10:47:52;7.0;77.7
78514;SHT31;67814;51.976;5.810;2024-02-26T10:50:21;7.0;78.3
78514;SHT31;67814;51.976;5.810;2024-02-26T10:52:52;7.1;78.2
78514;SHT31;67814;51.976;5.810;2024-02-26T10:55:23;7.1;78.3
78514;SHT31;67814;51.976;5.810;2024-02-26T10:57:53;7.1;77.9
78514;SHT31;67814;51.976;5.810;2024-02-26T11:00:22;7.1;77.7
78514;SHT31;67814;51.976;5.810;2024-02-26T11:02:52;7.2;77.2
78514;SHT31;67814;51.976;5.810;2024-02-26T11:05:22;7.2;77.0
78514;SHT31;67814;51.976;5.810;2024-02-26T11:07:52;7.2;77.3
78514;SHT31;67814;51.976;5.810;2024-02-26T11:10:21;7.2;77.1
78514;SHT31;67814;51.976;5.810;2024-02-26T11:12:56;7.2;76.9
78514;SHT31;67814;51.976;5.810;2024-02-26T11:15:28;7.2;77.5
78514;SHT31;67814;51.976;5.810;2024-02-26T11:18:00;7.2;78.1
78514;SHT31;67814;51.976;5.810;2024-02-26T11:20:32;7.2;78.0
78514;SHT31;67814;51.976;5.810;2024-02-26T11:23:02;7.2;77.2
78514;SHT31;67814;51.976;5.810;2024-02-26T11:25:30;7.2;77.4
78514;SHT31;67814;51.976;5.810;2024-02-26T11:28:03;7.2;77.6
78514;SHT31;67814;51.976;5.810;2024-02-26T11:30:37;7.2;77.8
78514;SHT31;67814;51.976;5.810;2024-02-26T11:33:09;7.1;77.8
78514;SHT31;67814;51.976;5.810;2024-02-26T11:35:39;7.2;78.1
78514;SHT31;67814;51.976;5.810;2024-02-26T11:38:08;7.2;78.5
78514;SHT31;67814;51.976;5.810;2024-02-26T11:40:39;7.2;77.8
78514;SHT31;67814;51.976;5.810;2024-02-26T11:43:08;7.2;78.1
78514;SHT31;67814;51.976;5.810;2024-02-26T11:45:55;7.2;78.0
78514;SHT31;67814;51.976;5.810;2024-02-26T11:48:28;7.2;78.5
78514;SHT31;67814;51.976;5.810;2024-02-26T11:50:58;7.2;78.0
78514;SHT31;67814;51.976;5.810;2024-02-26T11:53:28;7.2;77.7
78514;SHT31;67814;51.976;5.810;2024-02-26T11:56:59;7.2;78.0
78514;SHT31;67814;51.976;5.810;2024-02-26T11:59:39;7.2;78.5
78514;SHT31;67814;51.976;5.810;2024-02-26T12:02:09;7.2;77.7
78514;SHT31;67814;51.976;5.810;2024-02-26T12:04:39;7.2;78.3
78514;SHT31;67814;51.976;5.810;2024-02-26T12:07:08;7.2;77.7
78514;SHT31;67814;51.976;5.810;2024-02-26T12:09:37;7.2;78.3
78514;SHT31;67814;51.976;5.810;2024-02-26T12:12:09;7.2;78.5
78514;SHT31;67814;51.976;5.810;2024-02-26T12:14:52;7.1;78.7
78514;SHT31;67814;51.976;5.810;2024-02-26T12:17:23;7.2;78.1
78514;SHT31;67814;51.976;5.810;2024-02-26T12:19:52;7.1;78.3
78514;SHT31;67814;51.976;5.810;2024-02-26T12:22:26;7.1;78.3
78514;SHT31;67814;51.976;5.810;2024-02-26T12:25:00;7.1;78.3
78514;SHT31;67814;51.976;5.810;2024-02-26T12:27:29;7.1;78.8
78514;SHT31;67814;51.976;5.810;2024-02-26T12:29:58;7.1;78.5
78514;SHT31;67814;51.976;5.810;2024-02-26T12:32:26;7.1;78.8
78514;SHT31;67814;51.976;5.810;2024-02-26T12:34:56;7.1;79.0
78514;SHT31;67814;51.976;5.810;2024-02-26T12:37:27;7.0;79.3
78514;SHT31;67814;51.976;5.810;2024-02-26T12:39:57;7.0;79.2
78514;SHT31;67814;51.976;5.810;2024-02-26T12:42:26;7.0;79.7
78514;SHT31;67814;51.976;5.810;2024-02-26T12:44:54;7.1;79.5
78514;SHT31;67814;51.976;5.810;2024-02-26T12:47:23;7.1;79.5
78514;SHT31;67814;51.976;5.810;2024-02-26T12:49:53;7.1;79.5
78514;SHT31;67814;51.976;5.810;2024-02-26T12:52:22;7.1;78.9
78514;SHT31;67814;51.976;5.810;2024-02-26T12:54:51;7.1;80.2
78514;SHT31;67814;51.976;5.810;2024-02-26T12:57:20;7.1;79.0
78514;SHT31;67814;51.976;5.810;2024-02-26T12:59:51;7.2;79.2
78514;SHT31;67814;51.976;5.810;2024-02-26T13:02:19;7.2;79.2
78514;SHT31;67814;51.976;5.810;2024-02-26T13:04:49;7.2;79.1
78514;SHT31;67814;51.976;5.810;2024-02-26T13:07:17;7.2;78.8
78514;SHT31;67814;51.976;5.810;2024-02-26T13:09:46;7.2;78.7
78514;SHT31;67814;51.976;5.810;2024-02-26T13:12:16;7.3;79.0
78514;SHT31;67814;51.976;5.810;2024-02-26T13:14:47;7.3;78.5
78514;SHT31;67814;51.976;5.810;2024-02-26T13:17:23;7.3;79.4
78514;SHT31;67814;51.976;5.810;2024-02-26T13:19:54;7.3;79.5
78514;SHT31;67814;51.976;5.810;2024-02-26T13:22:23;7.4;78.2
78514;SHT31;67814;51.976;5.810;2024-02-26T13:24:56;7.4;78.3
78514;SHT31;67814;51.976;5.810;2024-02-26T13:27:25;7.4;79.6
78514;SHT31;67814;51.976;5.810;2024-02-26T13:30:04;7.5;79.2
78514;SHT31;67814;51.976;5.810;2024-02-26T13:32:35;7.5;78.3
78514;SHT31;67814;51.976;5.810;2024-02-26T13:35:09;7.5;78.7
78514;SHT31;67814;51.976;5.810;2024-02-26T13:37:39;7.6;78.2
78514;SHT31;67814;51.976;5.810;2024-02-26T13:40:10;7.6;77.4
78514;SHT31;67814;51.976;5.810;2024-02-26T13:42:39;7.6;77.3
78514;SHT31;67814;51.976;5.810;2024-02-26T13:45:08;7.6;76.9
78514;SHT31;67814;51.976;5.810;2024-02-26T13:47:37;7.6;77.6
78514;SHT31;67814;51.976;5.810;2024-02-26T13:50:07;7.6;76.7
78514;SHT31;67814;51.976;5.810;2024-02-26T13:52:36;7.6;76.5
78514;SHT31;67814;51.976;5.810;2024-02-26T13:55:05;7.6;77.6
78514;SHT31;67814;51.976;5.810;2024-02-26T13:57:34;7.7;76.8
78514;SHT31;67814;51.976;5.810;2024-02-26T14:00:03;7.7;76.7
78514;SHT31;67814;51.976;5.810;2024-02-26T14:02:33;7.7;76.4
78514;SHT31;67814;51.976;5.810;2024-02-26T14:05:03;7.7;77.0
78514;SHT31;67814;51.976;5.810;2024-02-26T14:07:32;7.7;76.1
78514;SHT31;67814;51.976;5.810;2024-02-26T14:10:00;7.7;76.2
78514;SHT31;67814;51.976;5.810;2024-02-26T14:12:29;7.7;76.1
78514;SHT31;67814;51.976;5.810;2024-02-26T14:14:59;7.8;76.6
78514;SHT31;67814;51.976;5.810;2024-02-26T14:17:31;7.8;76.6
78514;SHT31;67814;51.976;5.810;2024-02-26T14:19:59;7.8;76.5
78514;SHT31;67814;51.976;5.810;2024-02-26T14:22:28;7.7;75.9
78514;SHT31;67814;51.976;5.810;2024-02-26T14:24:57;7.7;76.7
78514;SHT31;67814;51.976;5.810;2024-02-26T14:27:26;7.7;76.9
78514;SHT31;67814;51.976;5.810;2024-02-26T14:29:54;7.8;76.3
78514;SHT31;67814;51.976;5.810;2024-02-26T14:32:23;7.8;76.9
78514;SHT31;67814;51.976;5.810;2024-02-26T14:34:52;7.8;76.9
78514;SHT31;67814;51.976;5.810;2024-02-26T14:37:21;7.8;76.5
78514;SHT31;67814;51.976;5.810;2024-02-26T14:39:50;7.8;77.4
78514;SHT31;67814;51.976;5.810;2024-02-26T14:42:19;7.9;76.4
78514;SHT31;67814;51.976;5.810;2024-02-26T14:44:47;7.9;76.4
78514;SHT31;67814;51.976;5.810;2024-02-26T14:47:17;8.0;76.4
78514;SHT31;67814;51.976;5.810;2024-02-26T14:49:45;8.0;76.2
78514;SHT31;67814;51.976;5.810;2024-02-26T14:52:15;8.0;75.5
78514;SHT31;67814;51.976;5.810;2024-02-26T14:54:43;8.0;75.0
78514;SHT31;67814;51.976;5.810;2024-02-26T14:57:12;8.0;74.7
78514;SHT31;67814;51.976;5.810;2024-02-26T14:59:41;8.0;74.9
78514;SHT31;67814;51.976;5.810;2024-02-26T15:02:10;8.0;74.9
78514;SHT31;67814;51.976;5.810;2024-02-26T15:04:41;8.0;75.3
78514;SHT31;67814;51.976;5.810;2024-02-26T15:07:12;8.0;74.7
78514;SHT31;67814;51.976;5.810;2024-02-26T15:09:41;8.0;74.8
78514;SHT31;67814;51.976;5.810;2024-02-26T15:12:10;8.1;73.7
78514;SHT31;67814;51.976;5.810;2024-02-26T15:14:38;8.1;73.2
78514;SHT31;67814;51.976;5.810;2024-02-26T15:17:10;8.0;72.9
78514;SHT31;67814;51.976;5.810;2024-02-26T15:19:39;8.0;73.2
78514;SHT31;67814;51.976;5.810;2024-02-26T15:22:08;8.0;73.3
78514;SHT31;67814;51.976;5.810;2024-02-26T15:24:38;8.0;73.7
78514;SHT31;67814;51.976;5.810;2024-02-26T15:27:06;7.9;73.2
78514;SHT31;67814;51.976;5.810;2024-02-26T15:29:37;7.9;73.1
78514;SHT31;67814;51.976;5.810;2024-02-26T15:32:06;7.9;73.0
78514;SHT31;67814;51.976;5.810;2024-02-26T15:34:35;7.9;73.2
78514;SHT31;67814;51.976;5.810;2024-02-26T15:37:04;7.9;73.3
78514;SHT31;67814;51.976;5.810;2024-02-26T15:39:33;7.9;73.5
78514;SHT31;67814;51.976;5.810;2024-02-26T15:42:03;7.9;73.4
78514;SHT31;67814;51.976;5.810;2024-02-26T15:44:32;7.8;72.9
78514;SHT31;67814;51.976;5.810;2024-02-26T15:47:00;7.8;73.0
78514;SHT31;67814;51.976;5.810;2024-02-26T15:49:29;7.8;73.4
78514;SHT31;67814;51.976;5.810;2024-02-26T15:51:58;7.8;73.4
78514;SHT31;67814;51.976;5.810;2024-02-26T15:54:26;7.8;73.3
78514;SHT31;67814;51.976;5.810;2024-02-26T15:56:55;7.9;72.6
78514;SHT31;67814;51.976;5.810;2024-02-26T15:59:24;7.9;73.2
78514;SHT31;67814;51.976;5.810;2024-02-26T16:01:52;7.9;73.3
78514;SHT31;67814;51.976;5.810;2024-02-26T16:04:21;7.9;72.8
78514;SHT31;67814;51.976;5.810;2024-02-26T16:06:54;7.9;73.0
78514;SHT31;67814;51.976;5.810;2024-02-26T16:09:23;8.0;72.9
78514;SHT31;67814;51.976;5.810;2024-02-26T16:11:52;8.0;72.7
78514;SHT31;67814;51.976;5.810;2024-02-26T16:14:39;8.0;73.4
78514;SHT31;67814;51.976;5.810;2024-02-26T16:17:09;8.0;72.6
78514;SHT31;67814;51.976;5.810;2024-02-26T16:19:39;8.1;72.8
78514;SHT31;67814;51.976;5.810;2024-02-26T16:22:08;8.1;72.3
78514;SHT31;67814;51.976;5.810;2024-02-26T16:24:37;8.1;71.8
78514;SHT31;67814;51.976;5.810;2024-02-26T16:27:06;8.1;72.0
78514;SHT31;67814;51.976;5.810;2024-02-26T16:29:35;8.1;71.9
78514;SHT31;67814;51.976;5.810;2024-02-26T16:32:04;8.1;71.8